HALF-HOURLY OBSERVATIONS INDEX

025

Murray Mallee and Upper Southeast

KEITH (MUNKORA)

Site: 025557
Alt: 27.0m
46km WNW of BORDERTOWN


  Time     Wind        Temp  DP   Baro     Rain since   Rain past  Vis(m), Cloud(base in m), Weather
  local        km/h                         9am  last   hr   10m    
Sun 08:30    W 15/ 22  15.6 10.2  1007.6    2.0   0.0   0.0   0.0   ----- 
Sun 09:00    W 19/ 26  16.7  9.6  1007.7    2.0   0.0   0.0   0.0   ----- 
Sun 09:30    W 20/ 28  17.4 10.1  1007.9    0.0   0.0   0.0   0.0   ----- 
Sun 10:00  WSW 20/ 33  17.8  9.9  1007.6    0.0   0.0   0.0   0.0   ----- 
Sun 10:30  WSW 24/ 32  17.8  8.9  1007.7    0.0   0.0   0.0   0.0   ----- 
Sun 11:00  WSW 24/ 33  18.5  9.0  1007.7    0.0   0.0   0.0   0.0   ----- 
Sun 11:30  WSW 39/ 50  16.1 11.3  1008.1    0.0   0.0   0.0   0.0   ----- 
Sun 12:00  WSW 22/ 41  16.2 11.2  1008.4    0.0   0.0   0.0   0.0   ----- 
Sun 12:30  WSW 22/ 33  16.6 13.5  1007.9    0.4   0.4   0.4   0.0   ----- 
Sun 13:00  WSW 26/ 41  19.1 10.9  1007.8    0.4   0.0   0.4   0.0   ----- 
Sun 13:30  WSW 28/ 39  19.2 10.5  1007.7    0.4   0.0   0.0   0.0   ----- 
Sun 14:00  WSW 26/ 35  18.7  9.2  1007.6    0.6   0.0   0.0   0.0   ----- 

LAMEROO (AUSTIN PLAINS)

Site: 025562
Alt: 110.1m
106km NNW of BORDERTOWN


  Time     Wind        Temp  DP   Baro     Rain since   Rain past  Vis(m), Cloud(base in m), Weather
  local        km/h                         9am  last   hr   10m    
Sun 08:30   SW 22/ 33  15.0 10.4  1008.1    1.4   0.0   0.0   0.0   ----- 
Sun 09:00   SW 26/ 35  16.7  9.6  1008.0    1.4   0.0   0.0   0.0   ----- 
Sun 09:30   SW 30/ 39  15.9  8.9  1008.3    0.0   0.0   0.0   0.0   ----- 
Sun 10:00  WSW 32/ 41  16.1  8.3  1008.3    0.0   0.0   0.0   0.0   ----- 
Sun 10:30  WSW 26/ 37  17.3  7.6  1008.1    0.0   0.0   0.0   0.0   ----- 
Sun 11:00   SW 28/ 43  18.4  8.4  1008.1    0.0   0.0   0.0   0.0   ----- 
Sun 11:30   SW 26/ 41  18.4  7.2  1008.0    0.0   0.0   0.0   0.0   ----- 
Sun 12:00   SW 24/ 35  18.9  8.0  1007.9    0.0   0.0   0.0   0.0   ----- 
Sun 12:30  WSW 28/ 35  19.3  8.3  1007.9    0.0   0.0   0.0   0.0   ----- 
Sun 13:00   SW 24/ 35  20.0  7.7  1007.7    0.0   0.0   0.0   0.0   ----- 
Sun 13:30   SW 28/ 39  19.1  8.7  1007.7    0.0   0.0   0.0   0.0   ----- 
Sun 13:47  SSW 28/ 52  19.7 10.4  1007.6    0.0   0.0   0.0   0.0   ----- 
Sun 14:00  SSW 33/ 46  20.1  9.4  1007.7    0.0   0.0   0.0   0.0   -----